sensor_id;sensor_type;location;lat;lon;timestamp;pressure;altitude;pressure_sealevel;temperature;humidity
6532;BME280;3299;42.004;24.868;2023-01-28T00:01:17;97370.06;;;5.12;100.00
6532;BME280;3299;42.004;24.868;2023-01-28T00:03:42;97383.31;;;5.19;100.00
6532;BME280;3299;42.004;24.868;2023-01-28T00:06:13;97374.00;;;5.18;100.00
6532;BME280;3299;42.004;24.868;2023-01-28T00:08:39;97353.03;;;5.11;100.00
6532;BME280;3299;42.004;24.868;2023-01-28T00:11:06;97390.22;;;5.31;100.00
6532;BME280;3299;42.004;24.868;2023-01-28T00:13:33;97386.06;;;5.16;100.00
6532;BME280;3299;42.004;24.868;2023-01-28T00:16:02;97388.72;;;5.14;100.00
6532;BME280;3299;42.004;24.868;2023-01-28T00:18:29;97343.25;;;4.77;100.00
6532;BME280;3299;42.004;24.868;2023-01-28T00:21:00;97401.03;;;5.09;100.00
6532;BME280;3299;42.004;24.868;2023-01-28T00:23:27;97301.56;;;4.61;100.00
6532;BME280;3299;42.004;24.868;2023-01-28T00:25:53;97363.19;;;4.86;100.00
6532;BME280;3299;42.004;24.868;2023-01-28T00:28:19;97344.41;;;4.86;100.00
6532;BME280;3299;42.004;24.868;2023-01-28T00:30:45;97391.09;;;5.17;100.00
6532;BME280;3299;42.004;24.868;2023-01-28T00:33:13;97403.97;;;5.30;100.00
6532;BME280;3299;42.004;24.868;2023-01-28T00:35:38;97416.09;;;5.40;100.00
6532;BME280;3299;42.004;24.868;2023-01-28T00:38:04;97398.09;;;5.28;100.00
6532;BME280;3299;42.004;24.868;2023-01-28T00:40:30;97431.72;;;5.50;100.00
6532;BME280;3299;42.004;24.868;2023-01-28T00:42:56;97378.47;;;5.14;100.00
6532;BME280;3299;42.004;24.868;2023-01-28T00:45:21;97430.88;;;5.49;100.00
6532;BME280;3299;42.004;24.868;2023-01-28T00:47:46;97384.34;;;5.02;100.00
6532;BME280;3299;42.004;24.868;2023-01-28T00:50:13;97419.84;;;5.22;100.00
6532;BME280;3299;42.004;24.868;2023-01-28T00:52:38;97419.16;;;5.06;100.00
6532;BME280;3299;42.004;24.868;2023-01-28T00:55:04;97421.94;;;5.16;100.00
6532;BME280;3299;42.004;24.868;2023-01-28T00:57:31;97421.56;;;5.22;100.00
6532;BME280;3299;42.004;24.868;2023-01-28T00:59:58;97418.75;;;5.12;100.00
6532;BME280;3299;42.004;24.868;2023-01-28T01:02:24;97428.16;;;5.26;100.00
6532;BME280;3299;42.004;24.868;2023-01-28T01:04:49;97439.75;;;5.31;100.00
6532;BME280;3299;42.004;24.868;2023-01-28T01:07:26;97396.06;;;5.06;100.00
6532;BME280;3299;42.004;24.868;2023-01-28T01:10:16;97431.50;;;5.40;100.00
6532;BME280;3299;42.004;24.868;2023-01-28T01:12:42;97388.84;;;4.99;100.00
6532;BME280;3299;42.004;24.868;2023-01-28T01:15:10;97400.72;;;5.14;100.00
6532;BME280;3299;42.004;24.868;2023-01-28T01:17:37;97387.06;;;5.13;100.00
6532;BME280;3299;42.004;24.868;2023-01-28T01:20:04;97427.16;;;5.28;100.00
6532;BME280;3299;42.004;24.868;2023-01-28T01:22:34;97389.09;;;5.08;100.00
6532;BME280;3299;42.004;24.868;2023-01-28T01:25:00;97375.97;;;5.00;100.00
6532;BME280;3299;42.004;24.868;2023-01-28T01:27:29;97386.44;;;5.10;100.00
6532;BME280;3299;42.004;24.868;2023-01-28T01:29:54;97405.38;;;5.21;100.00
6532;BME280;3299;42.004;24.868;2023-01-28T01:32:20;97400.63;;;5.15;100.00
6532;BME280;3299;42.004;24.868;2023-01-28T01:34:46;97411.41;;;5.20;100.00
6532;BME280;3299;42.004;24.868;2023-01-28T01:37:12;97396.22;;;5.17;100.00
6532;BME280;3299;42.004;24.868;2023-01-28T01:39:37;97424.66;;;5.27;100.00
6532;BME280;3299;42.004;24.868;2023-01-28T01:42:03;97407.72;;;5.24;100.00
6532;BME280;3299;42.004;24.868;2023-01-28T01:47:37;97449.06;;;5.46;100.00
6532;BME280;3299;42.004;24.868;2023-01-28T01:52:37;97472.16;;;5.46;100.00
6532;BME280;3299;42.004;24.868;2023-01-28T01:55:10;97482.41;;;5.46;100.00
6532;BME280;3299;42.004;24.868;2023-01-28T01:57:37;97419.69;;;5.11;100.00
6532;BME280;3299;42.004;24.868;2023-01-28T02:00:04;97481.56;;;5.46;100.00
6532;BME280;3299;42.004;24.868;2023-01-28T02:02:38;97466.78;;;5.37;100.00
6532;BME280;3299;42.004;24.868;2023-01-28T02:05:06;97432.41;;;5.13;100.00
6532;BME280;3299;42.004;24.868;2023-01-28T02:07:31;97474.56;;;5.35;100.00
6532;BME280;3299;42.004;24.868;2023-01-28T02:09:57;97478.75;;;5.36;100.00
6532;BME280;3299;42.004;24.868;2023-01-28T02:12:27;97474.38;;;5.38;100.00
6532;BME280;3299;42.004;24.868;2023-01-28T02:15:00;97491.78;;;5.33;100.00
6532;BME280;3299;42.004;24.868;2023-01-28T02:17:27;97440.31;;;4.96;100.00
6532;BME280;3299;42.004;24.868;2023-01-28T02:19:59;97484.50;;;5.13;100.00
6532;BME280;3299;42.004;24.868;2023-01-28T02:30:41;97453.97;;;4.82;100.00
6532;BME280;3299;42.004;24.868;2023-01-28T02:33:17;97451.50;;;4.81;100.00
6532;BME280;3299;42.004;24.868;2023-01-28T02:35:53;97500.00;;;5.12;100.00
6532;BME280;3299;42.004;24.868;2023-01-28T02:38:25;97462.22;;;4.87;100.00
6532;BME280;3299;42.004;24.868;2023-01-28T02:40:54;97462.75;;;4.92;100.00
6532;BME280;3299;42.004;24.868;2023-01-28T02:43:44;97455.31;;;4.88;100.00
6532;BME280;3299;42.004;24.868;2023-01-28T02:49:13;97493.94;;;5.13;100.00
6532;BME280;3299;42.004;24.868;2023-01-28T03:00:08;97513.94;;;5.34;100.00
6532;BME280;3299;42.004;24.868;2023-01-28T03:02:35;97519.25;;;5.31;100.00
6532;BME280;3299;42.004;24.868;2023-01-28T03:05:20;97469.69;;;5.04;100.00
6532;BME280;3299;42.004;24.868;2023-01-28T03:07:47;97456.72;;;4.93;100.00
6532;BME280;3299;42.004;24.868;2023-01-28T03:10:16;97517.63;;;5.30;100.00
6532;BME280;3299;42.004;24.868;2023-01-28T03:12:48;97508.38;;;5.28;100.00
6532;BME280;3299;42.004;24.868;2023-01-28T03:15:45;97466.13;;;5.07;100.00
6532;BME280;3299;42.004;24.868;2023-01-28T03:18:40;97531.22;;;5.45;100.00
6532;BME280;3299;42.004;24.868;2023-01-28T03:21:37;97533.16;;;5.41;100.00
6532;BME280;3299;42.004;24.868;2023-01-28T03:24:31;97539.00;;;5.43;100.00
6532;BME280;3299;42.004;24.868;2023-01-28T03:27:27;97472.97;;;5.06;100.00
6532;BME280;3299;42.004;24.868;2023-01-28T03:30:46;97534.25;;;5.37;100.00
6532;BME280;3299;42.004;24.868;2023-01-28T03:33:29;97525.94;;;5.34;100.00
6532;BME280;3299;42.004;24.868;2023-01-28T03:36:14;97478.47;;;5.00;100.00
6532;BME280;3299;42.004;24.868;2023-01-28T03:38:59;97493.47;;;5.06;100.00
6532;BME280;3299;42.004;24.868;2023-01-28T03:41:25;97520.56;;;5.24;100.00
6532;BME280;3299;42.004;24.868;2023-01-28T03:43:51;97546.38;;;5.35;100.00
6532;BME280;3299;42.004;24.868;2023-01-28T03:46:18;97481.75;;;5.02;100.00
6532;BME280;3299;42.004;24.868;2023-01-28T03:48:44;97482.78;;;5.00;100.00
6532;BME280;3299;42.004;24.868;2023-01-28T03:51:10;97536.56;;;5.28;100.00
6532;BME280;3299;42.004;24.868;2023-01-28T03:53:37;97507.84;;;5.09;100.00
6532;BME280;3299;42.004;24.868;2023-01-28T03:56:03;97518.75;;;5.12;100.00
6532;BME280;3299;42.004;24.868;2023-01-28T03:58:28;97551.59;;;5.34;100.00
6532;BME280;3299;42.004;24.868;2023-01-28T04:01:10;97503.19;;;5.01;100.00
6532;BME280;3299;42.004;24.868;2023-01-28T04:03:36;97531.91;;;5.20;100.00
6532;BME280;3299;42.004;24.868;2023-01-28T04:06:06;97516.00;;;5.01;100.00
6532;BME280;3299;42.004;24.868;2023-01-28T04:08:32;97498.09;;;4.87;100.00
6532;BME280;3299;42.004;24.868;2023-01-28T04:10:58;97508.88;;;4.92;100.00
6532;BME280;3299;42.004;24.868;2023-01-28T04:13:40;97506.31;;;4.92;100.00
6532;BME280;3299;42.004;24.868;2023-01-28T04:16:05;97518.84;;;4.97;100.00
6532;BME280;3299;42.004;24.868;2023-01-28T04:18:31;97495.97;;;4.80;100.00
6532;BME280;3299;42.004;24.868;2023-01-28T04:20:56;97496.50;;;4.71;100.00
6532;BME280;3299;42.004;24.868;2023-01-28T04:23:22;97551.59;;;5.06;100.00
6532;BME280;3299;42.004;24.868;2023-01-28T04:25:49;97554.63;;;5.12;100.00
6532;BME280;3299;42.004;24.868;2023-01-28T04:28:15;97555.72;;;5.08;100.00
6532;BME280;3299;42.004;24.868;2023-01-28T04:30:40;97485.00;;;4.78;100.00
6532;BME280;3299;42.004;24.868;2023-01-28T04:33:06;97510.34;;;4.82;100.00
6532;BME280;3299;42.004;24.868;2023-01-28T04:35:31;97567.53;;;5.11;100.00
6532;BME280;3299;42.004;24.868;2023-01-28T04:37:56;97515.47;;;4.82;100.00
6532;BME280;3299;42.004;24.868;2023-01-28T04:40:22;97568.38;;;5.11;100.00
6532;BME280;3299;42.004;24.868;2023-01-28T04:42:54;97562.50;;;4.95;100.00
6532;BME280;3299;42.004;24.868;2023-01-28T04:45:20;97526.38;;;4.86;100.00
6532;BME280;3299;42.004;24.868;2023-01-28T04:47:45;97567.53;;;5.11;100.00
6532;BME280;3299;42.004;24.868;2023-01-28T04:50:11;97518.84;;;4.69;100.00
6532;BME280;3299;42.004;24.868;2023-01-28T04:52:36;97529.28;;;4.66;100.00
6532;BME280;3299;42.004;24.868;2023-01-28T04:55:02;97491.66;;;4.38;100.00
6532;BME280;3299;42.004;24.868;2023-01-28T04:57:28;97587.78;;;5.01;100.00
6532;BME280;3299;42.004;24.868;2023-01-28T04:59:53;97579.72;;;4.93;100.00
6532;BME280;3299;42.004;24.868;2023-01-28T05:02:18;97580.44;;;4.95;100.00
6532;BME280;3299;42.004;24.868;2023-01-28T05:04:44;97595.38;;;5.03;100.00
6532;BME280;3299;42.004;24.868;2023-01-28T05:07:10;97596.59;;;4.97;100.00
6532;BME280;3299;42.004;24.868;2023-01-28T05:09:35;97543.09;;;4.63;100.00
6532;BME280;3299;42.004;24.868;2023-01-28T05:12:01;97564.53;;;4.76;100.00
6532;BME280;3299;42.004;24.868;2023-01-28T05:14:27;97600.16;;;4.95;100.00
6532;BME280;3299;42.004;24.868;2023-01-28T05:16:52;97508.00;;;4.36;100.00
6532;BME280;3299;42.004;24.868;2023-01-28T05:19:18;97564.97;;;4.69;100.00
6532;BME280;3299;42.004;24.868;2023-01-28T05:21:43;97573.94;;;4.76;100.00
6532;BME280;3299;42.004;24.868;2023-01-28T05:24:09;97583.47;;;4.88;100.00
6532;BME280;3299;42.004;24.868;2023-01-28T05:26:34;97599.31;;;5.08;100.00
6532;BME280;3299;42.004;24.868;2023-01-28T05:29:01;97611.50;;;5.19;100.00
6532;BME280;3299;42.004;24.868;2023-01-28T05:31:27;97542.38;;;4.75;100.00
6532;BME280;3299;42.004;24.868;2023-01-28T05:33:52;97569.66;;;4.90;100.00
6532;BME280;3299;42.004;24.868;2023-01-28T05:36:18;97576.41;;;4.77;100.00
6532;BME280;3299;42.004;24.868;2023-01-28T05:38:43;97564.41;;;4.64;100.00
6532;BME280;3299;42.004;24.868;2023-01-28T05:41:09;97586.31;;;4.69;100.00
6532;BME280;3299;42.004;24.868;2023-01-28T05:43:34;97572.28;;;4.61;100.00
6532;BME280;3299;42.004;24.868;2023-01-28T05:45:59;97584.66;;;4.68;100.00
6532;BME280;3299;42.004;24.868;2023-01-28T05:48:25;97627.94;;;4.87;100.00
6532;BME280;3299;42.004;24.868;2023-01-28T05:50:50;97574.63;;;4.50;100.00
6532;BME280;3299;42.004;24.868;2023-01-28T05:53:15;97629.31;;;4.78;100.00
6532;BME280;3299;42.004;24.868;2023-01-28T05:55:41;97645.97;;;4.85;100.00
6532;BME280;3299;42.004;24.868;2023-01-28T05:58:06;97648.53;;;4.85;100.00
6532;BME280;3299;42.004;24.868;2023-01-28T06:00:32;97614.28;;;4.58;100.00
6532;BME280;3299;42.004;24.868;2023-01-28T06:02:57;97605.47;;;4.62;100.00
6532;BME280;3299;42.004;24.868;2023-01-28T06:05:23;97606.97;;;4.66;100.00
6532;BME280;3299;42.004;24.868;2023-01-28T06:07:48;97600.19;;;4.65;100.00
6532;BME280;3299;42.004;24.868;2023-01-28T06:10:14;97605.47;;;4.62;100.00
6532;BME280;3299;42.004;24.868;2023-01-28T06:12:42;97657.44;;;4.94;100.00
6532;BME280;3299;42.004;24.868;2023-01-28T06:15:08;97616.84;;;4.72;100.00
6532;BME280;3299;42.004;24.868;2023-01-28T06:17:33;97670.91;;;5.11;100.00
6532;BME280;3299;42.004;24.868;2023-01-28T06:19:59;97616.69;;;4.75;100.00
6532;BME280;3299;42.004;24.868;2023-01-28T06:22:24;97635.47;;;4.90;100.00
6532;BME280;3299;42.004;24.868;2023-01-28T06:24:50;97680.81;;;5.17;100.00
6532;BME280;3299;42.004;24.868;2023-01-28T06:27:15;97676.06;;;5.11;100.00
6532;BME280;3299;42.004;24.868;2023-01-28T06:29:40;97603.59;;;4.66;100.00
6532;BME280;3299;42.004;24.868;2023-01-28T06:32:06;97699.69;;;5.30;100.00
6532;BME280;3299;42.004;24.868;2023-01-28T06:34:31;97703.91;;;5.31;100.00
6532;BME280;3299;42.004;24.868;2023-01-28T06:36:57;97664.66;;;5.01;100.00
6532;BME280;3299;42.004;24.868;2023-01-28T06:39:22;97647.00;;;4.97;100.00
6532;BME280;3299;42.004;24.868;2023-01-28T06:41:51;97715.00;;;5.32;100.00
6532;BME280;3299;42.004;24.868;2023-01-28T06:44:16;97669.28;;;5.10;100.00
6532;BME280;3299;42.004;24.868;2023-01-28T06:46:42;97719.94;;;5.35;100.00
6532;BME280;3299;42.004;24.868;2023-01-28T06:49:07;97681.81;;;5.15;100.00
6532;BME280;3299;42.004;24.868;2023-01-28T06:51:33;97715.84;;;5.32;100.00
6532;BME280;3299;42.004;24.868;2023-01-28T06:53:58;97709.22;;;5.28;100.00
6532;BME280;3299;42.004;24.868;2023-01-28T06:56:23;97674.75;;;5.04;100.00
6532;BME280;3299;42.004;24.868;2023-01-28T06:58:49;97713.28;;;5.32;100.00
6532;BME280;3299;42.004;24.868;2023-01-28T07:01:14;97674.56;;;5.07;100.00
6532;BME280;3299;42.004;24.868;2023-01-28T07:03:40;97677.78;;;5.11;100.00
6532;BME280;3299;42.004;24.868;2023-01-28T07:06:05;97693.44;;;5.20;100.00
6532;BME280;3299;42.004;24.868;2023-01-28T07:08:31;97688.44;;;5.19;100.00
6532;BME280;3299;42.004;24.868;2023-01-28T07:10:57;97721.59;;;5.36;100.00
6532;BME280;3299;42.004;24.868;2023-01-28T07:13:22;97678.63;;;5.11;100.00
6532;BME280;3299;42.004;24.868;2023-01-28T07:15:48;97691.25;;;5.14;100.00
6532;BME280;3299;42.004;24.868;2023-01-28T07:18:14;97742.56;;;5.42;100.00
6532;BME280;3299;42.004;24.868;2023-01-28T07:20:40;97691.25;;;5.14;100.00
6532;BME280;3299;42.004;24.868;2023-01-28T07:23:06;97695.47;;;5.15;100.00
6532;BME280;3299;42.004;24.868;2023-01-28T07:25:31;97726.47;;;5.40;100.00
6532;BME280;3299;42.004;24.868;2023-01-28T07:27:56;97739.19;;;5.42;100.00
6532;BME280;3299;42.004;24.868;2023-01-28T07:30:22;97709.75;;;5.19;100.00
6532;BME280;3299;42.004;24.868;2023-01-28T07:32:53;97758.34;;;5.50;100.00
6532;BME280;3299;42.004;24.868;2023-01-28T07:35:18;97720.97;;;5.32;100.00
6532;BME280;3299;42.004;24.868;2023-01-28T07:37:53;97764.41;;;5.63;100.00
6532;BME280;3299;42.004;24.868;2023-01-28T07:40:19;97713.91;;;5.36;100.00
6532;BME280;3299;42.004;24.868;2023-01-28T07:42:44;97749.75;;;5.65;100.00
6532;BME280;3299;42.004;24.868;2023-01-28T07:45:10;97710.16;;;5.41;100.00
6532;BME280;3299;42.004;24.868;2023-01-28T07:47:35;97718.88;;;5.53;100.00
6532;BME280;3299;42.004;24.868;2023-01-28T07:50:01;97772.38;;;5.73;100.00
6532;BME280;3299;42.004;24.868;2023-01-28T07:52:26;97718.19;;;5.49;100.00
6532;BME280;3299;42.004;24.868;2023-01-28T07:54:52;97775.69;;;5.75;100.00
6532;BME280;3299;42.004;24.868;2023-01-28T07:57:17;97770.09;;;5.68;100.00
6532;BME280;3299;42.004;24.868;2023-01-28T07:59:50;97782.97;;;5.82;100.00
6532;BME280;3299;42.004;24.868;2023-01-28T08:02:17;97791.22;;;5.87;100.00
6532;BME280;3299;42.004;24.868;2023-01-28T08:04:42;97740.03;;;5.56;100.00
6532;BME280;3299;42.004;24.868;2023-01-28T08:07:08;97795.06;;;5.94;100.00
6532;BME280;3299;42.004;24.868;2023-01-28T08:09:34;97740.59;;;5.61;100.00
6532;BME280;3299;42.004;24.868;2023-01-28T08:12:02;97748.09;;;5.64;100.00
6532;BME280;3299;42.004;24.868;2023-01-28T08:14:27;97789.50;;;5.88;100.00
6532;BME280;3299;42.004;24.868;2023-01-28T08:16:53;97813.78;;;6.10;100.00
6532;BME280;3299;42.004;24.868;2023-01-28T08:19:18;97825.91;;;6.08;100.00
6532;BME280;3299;42.004;24.868;2023-01-28T08:21:49;97825.97;;;6.07;100.00
6532;BME280;3299;42.004;24.868;2023-01-28T08:24:15;97815.78;;;6.05;100.00
6532;BME280;3299;42.004;24.868;2023-01-28T08:26:40;97807.16;;;6.06;100.00
6532;BME280;3299;42.004;24.868;2023-01-28T08:29:05;97818.34;;;6.05;100.00
6532;BME280;3299;42.004;24.868;2023-01-28T08:31:31;97831.66;;;6.12;100.00
6532;BME280;3299;42.004;24.868;2023-01-28T08:33:56;97775.50;;;5.78;100.00
6532;BME280;3299;42.004;24.868;2023-01-28T08:36:22;97825.91;;;6.08;100.00
6532;BME280;3299;42.004;24.868;2023-01-28T08:38:54;97779.22;;;5.88;100.00
6532;BME280;3299;42.004;24.868;2023-01-28T08:41:22;97795.97;;;5.93;100.00
6532;BME280;3299;42.004;24.868;2023-01-28T08:43:48;97831.38;;;6.30;100.00
6532;BME280;3299;42.004;24.868;2023-01-28T08:46:13;97837.34;;;6.31;100.00
6532;BME280;3299;42.004;24.868;2023-01-28T08:48:39;97835.22;;;6.37;100.00
6532;BME280;3299;42.004;24.868;2023-01-28T08:51:04;97822.75;;;6.31;100.00
6532;BME280;3299;42.004;24.868;2023-01-28T08:53:30;97862.38;;;6.55;100.00
6532;BME280;3299;42.004;24.868;2023-01-28T08:55:55;97753.31;;;6.05;88.02
6532;BME280;3299;42.004;24.868;2023-01-28T08:58:21;97756.44;;;6.10;85.07
6532;BME280;3299;42.004;24.868;2023-01-28T09:00:46;97817.59;;;6.45;88.05
6532;BME280;3299;42.004;24.868;2023-01-28T09:03:12;97763.13;;;6.26;87.25
6532;BME280;3299;42.004;24.868;2023-01-28T09:05:37;97867.72;;;6.93;85.88
6532;BME280;3299;42.004;24.868;2023-01-28T09:08:05;97823.09;;;6.80;83.33
6532;BME280;3299;42.004;24.868;2023-01-28T09:10:31;97788.19;;;6.63;83.78
6532;BME280;3299;42.004;24.868;2023-01-28T09:12:57;97850.78;;;7.03;82.47
6532;BME280;3299;42.004;24.868;2023-01-28T09:15:22;97870.88;;;7.10;81.61
6532;BME280;3299;42.004;24.868;2023-01-28T09:17:48;97814.69;;;6.78;82.62
6532;BME280;3299;42.004;24.868;2023-01-28T09:20:13;97868.44;;;6.95;77.77
6532;BME280;3299;42.004;24.868;2023-01-28T09:22:39;97869.44;;;6.92;80.40
6532;BME280;3299;42.004;24.868;2023-01-28T09:25:05;97824.50;;;6.71;81.28
6532;BME280;3299;42.004;24.868;2023-01-28T09:27:31;97780.31;;;6.52;79.60
6532;BME280;3299;42.004;24.868;2023-01-28T09:29:57;97863.94;;;6.98;80.65
6532;BME280;3299;42.004;24.868;2023-01-28T09:32:22;97817.44;;;6.75;79.91
6532;BME280;3299;42.004;24.868;2023-01-28T09:34:49;97826.34;;;6.69;83.08
6532;BME280;3299;42.004;24.868;2023-01-28T09:37:15;97859.16;;;6.92;82.83
6532;BME280;3299;42.004;24.868;2023-01-28T09:39:42;97821.38;;;6.80;80.65
6532;BME280;3299;42.004;24.868;2023-01-28T09:47:25;97818.00;;;6.66;80.53
6532;BME280;3299;42.004;24.868;2023-01-28T09:49:53;97787.59;;;6.46;79.46
6532;BME280;3299;42.004;24.868;2023-01-28T09:52:23;97863.28;;;6.95;82.17
6532;BME280;3299;42.004;24.868;2023-01-28T09:57:33;97879.81;;;6.91;80.97
6532;BME280;3299;42.004;24.868;2023-01-28T10:00:01;97823.88;;;6.68;81.45
6532;BME280;3299;42.004;24.868;2023-01-28T10:02:45;97818.09;;;6.64;80.12
6532;BME280;3299;42.004;24.868;2023-01-28T10:18:29;97795.56;;;6.41;79.30
6532;BME280;3299;42.004;24.868;2023-01-28T10:21:09;97869.00;;;6.86;79.42
6532;BME280;3299;42.004;24.868;2023-01-28T10:23:47;97852.13;;;6.82;79.37
6532;BME280;3299;42.004;24.868;2023-01-28T10:26:22;97877.09;;;6.94;79.01
6532;BME280;3299;42.004;24.868;2023-01-28T10:28:55;97864.69;;;6.86;79.64
6532;BME280;3299;42.004;24.868;2023-01-28T10:31:30;97850.91;;;6.87;80.02
6532;BME280;3299;42.004;24.868;2023-01-28T10:33:56;97861.56;;;6.95;78.40
6532;BME280;3299;42.004;24.868;2023-01-28T10:36:24;97855.75;;;6.92;80.36
6532;BME280;3299;42.004;24.868;2023-01-28T10:38:50;97880.81;;;7.02;78.42
6532;BME280;3299;42.004;24.868;2023-01-28T10:41:19;97840.44;;;6.64;78.99
6532;BME280;3299;42.004;24.868;2023-01-28T10:43:46;97841.97;;;6.66;78.20
6532;BME280;3299;42.004;24.868;2023-01-28T10:51:29;97857.16;;;6.83;79.38
6532;BME280;3299;42.004;24.868;2023-01-28T10:53:54;97844.84;;;6.88;79.94
6532;BME280;3299;42.004;24.868;2023-01-28T10:56:28;97834.00;;;6.97;78.42
6532;BME280;3299;42.004;24.868;2023-01-28T10:59:00;97886.38;;;7.35;76.80
6532;BME280;3299;42.004;24.868;2023-01-28T11:01:47;97888.16;;;7.47;76.95
6532;BME280;3299;42.004;24.868;2023-01-28T11:04:28;97829.19;;;7.05;75.46
6532;BME280;3299;42.004;24.868;2023-01-28T11:07:00;97876.00;;;7.10;76.10
6532;BME280;3299;42.004;24.868;2023-01-28T11:09:28;97886.94;;;7.14;77.91
6532;BME280;3299;42.004;24.868;2023-01-28T11:11:56;97825.63;;;6.67;77.42
6532;BME280;3299;42.004;24.868;2023-01-28T11:14:24;97887.28;;;6.95;77.01
6532;BME280;3299;42.004;24.868;2023-01-28T11:16:51;97829.50;;;6.60;76.96
6532;BME280;3299;42.004;24.868;2023-01-28T11:19:19;97824.88;;;6.65;77.91
6532;BME280;3299;42.004;24.868;2023-01-28T11:21:51;97836.97;;;6.77;77.83
6532;BME280;3299;42.004;24.868;2023-01-28T11:24:21;97894.09;;;7.23;77.72
6532;BME280;3299;42.004;24.868;2023-01-28T11:26:51;97839.06;;;6.99;75.63
6532;BME280;3299;42.004;24.868;2023-01-28T11:29:38;97878.03;;;7.19;76.21
6532;BME280;3299;42.004;24.868;2023-01-28T11:32:04;97831.09;;;6.89;76.07
6532;BME280;3299;42.004;24.868;2023-01-28T11:34:33;97852.44;;;7.04;76.42
6532;BME280;3299;42.004;24.868;2023-01-28T11:37:03;97892.53;;;7.20;76.53
6532;BME280;3299;42.004;24.868;2023-01-28T11:39:30;97791.09;;;6.71;78.26
6532;BME280;3299;42.004;24.868;2023-01-28T11:42:17;97881.50;;;7.45;76.07
6532;BME280;3299;42.004;24.868;2023-01-28T11:44:43;97829.66;;;7.24;76.45
6532;BME280;3299;42.004;24.868;2023-01-28T11:47:18;97886.88;;;7.54;75.80
6532;BME280;3299;42.004;24.868;2023-01-28T11:50:21;97887.28;;;7.61;76.54
6532;BME280;3299;42.004;24.868;2023-01-28T12:01:38;97899.47;;;7.71;75.71
6532;BME280;3299;42.004;24.868;2023-01-28T12:04:33;97889.97;;;7.59;76.25
6532;BME280;3299;42.004;24.868;2023-01-28T12:20:29;97894.06;;;7.49;76.02
6532;BME280;3299;42.004;24.868;2023-01-28T12:39:24;97833.56;;;6.50;81.58
6532;BME280;3299;42.004;24.868;2023-01-28T12:44:51;97820.75;;;6.63;83.32
6532;BME280;3299;42.004;24.868;2023-01-28T12:47:27;97871.19;;;6.92;82.36
6532;BME280;3299;42.004;24.868;2023-01-28T12:50:04;97849.75;;;6.79;81.99
6532;BME280;3299;42.004;24.868;2023-01-28T12:52:41;97861.66;;;6.94;82.00
6532;BME280;3299;42.004;24.868;2023-01-28T12:55:16;97904.31;;;7.10;82.49
6532;BME280;3299;42.004;24.868;2023-01-28T12:57:43;97852.34;;;6.65;82.34
6532;BME280;3299;42.004;24.868;2023-01-28T13:00:22;97861.97;;;6.75;83.48
6532;BME280;3299;42.004;24.868;2023-01-28T13:03:08;97907.56;;;7.00;81.79
6532;BME280;3299;42.004;24.868;2023-01-28T13:05:43;97903.34;;;6.99;82.23
6532;BME280;3299;42.004;24.868;2023-01-28T13:08:23;97906.84;;;6.84;83.40
6532;BME280;3299;42.004;24.868;2023-01-28T13:10:50;97889.53;;;6.73;84.36
6532;BME280;3299;42.004;24.868;2023-01-28T13:15:54;97917.38;;;6.93;84.50
6532;BME280;3299;42.004;24.868;2023-01-28T13:20:54;97893.75;;;6.74;80.84
6532;BME280;3299;42.004;24.868;2023-01-28T13:23:40;97913.25;;;6.91;81.66
6532;BME280;3299;42.004;24.868;2023-01-28T13:28:49;97905.31;;;6.53;82.17
6532;BME280;3299;42.004;24.868;2023-01-28T13:31:18;97921.00;;;6.63;83.26
6532;BME280;3299;42.004;24.868;2023-01-28T13:36:25;97933.59;;;6.67;82.36
6532;BME280;3299;42.004;24.868;2023-01-28T13:41:39;97938.72;;;6.67;86.08
6532;BME280;3299;42.004;24.868;2023-01-28T13:46:49;97902.19;;;6.48;84.54
6532;BME280;3299;42.004;24.868;2023-01-28T13:49:20;97886.78;;;6.34;83.96
6532;BME280;3299;42.004;24.868;2023-01-28T13:52:03;97904.75;;;6.48;83.63
6532;BME280;3299;42.004;24.868;2023-01-28T13:54:31;97901.09;;;6.38;83.37
6532;BME280;3299;42.004;24.868;2023-01-28T14:16:50;97974.13;;;6.48;84.21
6532;BME280;3299;42.004;24.868;2023-01-28T14:19:25;97915.59;;;6.25;85.91
6532;BME280;3299;42.004;24.868;2023-01-28T14:21:52;97955.78;;;6.54;88.85
6532;BME280;3299;42.004;24.868;2023-01-28T14:24:18;97961.31;;;6.62;90.68
6532;BME280;3299;42.004;24.868;2023-01-28T14:26:58;97986.19;;;6.76;92.08
6532;BME280;3299;42.004;24.868;2023-01-28T14:29:48;97986.72;;;6.67;92.85
6532;BME280;3299;42.004;24.868;2023-01-28T14:32:19;97969.00;;;6.48;88.87
6532;BME280;3299;42.004;24.868;2023-01-28T14:34:46;97978.91;;;6.54;88.39
6532;BME280;3299;42.004;24.868;2023-01-28T14:37:14;97936.75;;;6.15;90.17
6532;BME280;3299;42.004;24.868;2023-01-28T14:39:48;97990.03;;;6.41;89.06
6532;BME280;3299;42.004;24.868;2023-01-28T14:42:21;98000.38;;;6.39;89.12
6532;BME280;3299;42.004;24.868;2023-01-28T14:59:54;98009.75;;;6.40;90.04
6532;BME280;3299;42.004;24.868;2023-01-28T15:02:29;98021.16;;;6.50;86.84
6532;BME280;3299;42.004;24.868;2023-01-28T15:05:10;98020.75;;;6.42;85.49
6532;BME280;3299;42.004;24.868;2023-01-28T15:07:42;97969.69;;;6.08;86.16
6532;BME280;3299;42.004;24.868;2023-01-28T15:10:25;98019.25;;;6.24;87.40
6532;BME280;3299;42.004;24.868;2023-01-28T15:13:04;98032.28;;;6.21;89.38
6532;BME280;3299;42.004;24.868;2023-01-28T15:15:35;97982.31;;;5.97;88.89
6532;BME280;3299;42.004;24.868;2023-01-28T15:18:27;97936.47;;;5.76;85.47
6532;BME280;3299;42.004;24.868;2023-01-28T15:20:54;97985.91;;;6.09;86.03
6532;BME280;3299;42.004;24.868;2023-01-28T15:23:27;97994.09;;;6.15;86.83
6532;BME280;3299;42.004;24.868;2023-01-28T15:25:54;97987.84;;;6.05;87.22
6532;BME280;3299;42.004;24.868;2023-01-28T15:28:38;97993.06;;;6.04;87.53
6532;BME280;3299;42.004;24.868;2023-01-28T15:31:04;98051.22;;;6.34;87.82
6532;BME280;3299;42.004;24.868;2023-01-28T15:33:30;98042.50;;;6.37;86.87
6532;BME280;3299;42.004;24.868;2023-01-28T15:35:57;97988.19;;;5.99;87.14
6532;BME280;3299;42.004;24.868;2023-01-28T15:38:26;97993.88;;;6.04;87.89
6532;BME280;3299;42.004;24.868;2023-01-28T15:41:00;97996.53;;;6.03;89.35
6532;BME280;3299;42.004;24.868;2023-01-28T15:43:32;98035.16;;;6.31;90.51
6532;BME280;3299;42.004;24.868;2023-01-28T15:45:59;98005.88;;;6.04;92.37
6532;BME280;3299;42.004;24.868;2023-01-28T15:48:29;98001.66;;;6.03;95.70
6532;BME280;3299;42.004;24.868;2023-01-28T15:51:01;98053.63;;;6.37;90.25